This is the latest recevied weather packets stored in our database for station/object OE-11138. If no packets are shown the sender has not sent any weather packets the latest 10 day(s).
| Time | Temp. | Humidity | Pressure | Rain* | Wind** | Luminosity | Snow |
|---|---|---|---|---|---|---|---|
| 1787860524 | 14.44° C | 78% | 719.6 hPa | 0 mm | - | 0 W/m² | - |
| 1787859698 | 13.89° C | 80% | 719.5 hPa | 0 mm | - | 0 W/m² | - |
| 1787859324 | 13.89° C | 80% | 719.3 hPa | 0 mm | - | 0 W/m² | - |
| 1787858724 | 14.44° C | 78% | 719.4 hPa | 0 mm | - | 0 W/m² | - |
| 1787857897 | 14.44° C | 78% | 719.2 hPa | 0 mm | - | 0 W/m² | - |
| 1787857524 | 14.44° C | 77% | 719.2 hPa | 0 mm | - | 0 W/m² | - |
| 1787856924 | 14.44° C | 76% | 719.3 hPa | 0 mm | - | 0 W/m² | - |
| 1787856097 | 14.44° C | 75% | 719.2 hPa | 0 mm | - | 0 W/m² | - |
| 1787855723 | 14.44° C | 79% | 719.3 hPa | 0 mm | - | 0 W/m² | - |
| 1787855124 | 15° C | 74% | 719.2 hPa | 0 mm | - | 0 W/m² | - |
| 1787854297 | 15° C | 71% | 719.3 hPa | 0 mm | - | 6 W/m² | - |
| 1787853924 | 15.56° C | 70% | 719.3 hPa | 0 mm | - | 12 W/m² | - |
| 1787852736 | 16.11° C | 63% | 719.3 hPa | 0 mm | - | 36 W/m² | - |
| 1787852123 | 16.11° C | 63% | 719.4 hPa | 0 mm | - | 55 W/m² | - |
| 1787851524 | 16.11° C | 65% | 719.4 hPa | 0 mm | - | 61 W/m² | - |
| 1787850697 | 16.11° C | 63% | 719.3 hPa | 0 mm | - | 73 W/m² | - |
| 1787850324 | 16.11° C | 64% | 719.3 hPa | 0 mm | - | 85 W/m² | - |
| 1787849724 | 16.67° C | 58% | 719.4 hPa | 0 mm | - | 109 W/m² | - |
| 1787848897 | 16.11° C | 62% | 719.4 hPa | 0 mm | - | 164 W/m² | - |
| 1787848524 | 16.67° C | 58% | 719.6 hPa | 0 mm | - | 115 W/m² | - |
| 1787847924 | 16.67° C | 56% | 719.8 hPa | 0 mm | - | 109 W/m² | - |
| 1787847097 | 16.67° C | 55% | 719.9 hPa | 0 mm | - | 188 W/m² | - |
| 1787846724 | 17.22° C | 54% | 719.8 hPa | 0 mm | - | 249 W/m² | - |
| 1787846124 | 17.22° C | 55% | 719.9 hPa | 0 mm | - | 267 W/m² | - |
| 1787845296 | 16.67° C | 58% | 719.9 hPa | 0 mm | - | 237 W/m² | - |
* Rain latest hour (hover to see other rain measurements)
** Current wind speed in m/s (hover to see current wind gust speed)